createdAt,value
2023-05-17T00:02:23.944Z,40.72
2023-05-17T00:05:12.451Z,40.58
2023-05-17T00:07:59.438Z,44.53
2023-05-17T00:10:45.501Z,42.38
2023-05-17T00:13:32.316Z,40.45
2023-05-17T00:16:18.877Z,37.85
2023-05-17T00:19:05.428Z,39.20
2023-05-17T00:21:52.527Z,36.97
2023-05-17T00:24:38.849Z,35.10
2023-05-17T00:27:24.962Z,40.08
2023-05-17T00:30:11.321Z,34.05
2023-05-17T00:32:57.481Z,33.83
2023-05-17T00:35:43.372Z,30.80
2023-05-17T00:38:31.365Z,33.63
2023-05-17T00:41:26.758Z,33.53
2023-05-17T00:44:13.156Z,33.17
2023-05-17T00:47:00.087Z,33.38
2023-05-17T00:49:47.167Z,32.05
2023-05-17T00:52:33.579Z,36.30
2023-05-17T00:55:20.838Z,30.15
2023-05-17T00:58:07.078Z,28.73
2023-05-17T01:00:53.773Z,29.00
2023-05-17T01:03:40.192Z,31.20
2023-05-17T01:06:26.773Z,29.63
2023-05-17T01:09:13.404Z,30.67
2023-05-17T01:12:09.091Z,29.23
2023-05-17T01:15:07.426Z,23.42
2023-05-17T01:18:06.031Z,31.35
2023-05-17T01:20:53.962Z,28.15
2023-05-17T01:23:43.708Z,29.42
2023-05-17T01:26:40.170Z,33.80
2023-05-17T01:29:29.236Z,34.25
2023-05-17T01:32:16.420Z,27.55
2023-05-17T01:35:06.242Z,28.75
2023-05-17T01:37:54.660Z,27.83
2023-05-17T01:40:46.766Z,32.63
2023-05-17T01:43:38.634Z,32.33
2023-05-17T01:46:48.749Z,28.98
2023-05-17T01:49:37.988Z,34.20
2023-05-17T01:52:32.846Z,34.53
2023-05-17T01:56:01.099Z,26.17
2023-05-17T01:58:49.811Z,29.17
2023-05-17T02:01:36.670Z,30.77
2023-05-17T02:04:23.365Z,30.65
2023-05-17T02:07:10.041Z,30.38
2023-05-17T02:09:56.082Z,27.75
2023-05-17T02:12:42.238Z,29.33
2023-05-17T02:15:28.667Z,28.77
2023-05-17T02:18:17.305Z,24.48
2023-05-17T02:21:03.582Z,28.10
2023-05-17T02:23:51.850Z,23.08
2023-05-17T02:26:43.881Z,26.67
2023-05-17T02:29:31.534Z,27.70
2023-05-17T02:32:19.214Z,24.58
2023-05-17T02:35:05.981Z,23.70
2023-05-17T02:37:53.382Z,28.75
2023-05-17T02:40:42.426Z,24.25
2023-05-17T02:43:29.363Z,23.05
2023-05-17T02:46:16.401Z,25.10
2023-05-17T02:49:04.288Z,27.25
2023-05-17T02:51:51.379Z,21.63
2023-05-17T02:54:38.169Z,26.95
2023-05-17T02:57:24.680Z,23.05
2023-05-17T03:00:11.862Z,27.35
2023-05-17T03:02:58.148Z,22.30
2023-05-17T03:05:44.997Z,27.05
2023-05-17T03:08:32.681Z,23.75
2023-05-17T03:11:20.657Z,20.95
2023-05-17T03:14:07.380Z,28.35
2023-05-17T03:16:53.762Z,27.73
2023-05-17T03:19:44.875Z,25.95
2023-05-17T03:22:34.794Z,26.73
2023-05-17T03:25:22.205Z,23.45
2023-05-17T03:28:09.438Z,25.15
2023-05-17T03:30:56.116Z,25.73
2023-05-17T03:33:43.921Z,25.15
2023-05-17T03:36:31.552Z,22.98
2023-05-17T03:39:18.048Z,21.88
2023-05-17T03:42:04.228Z,20.70
2023-05-17T03:44:53.025Z,22.65
2023-05-17T03:47:41.024Z,22.73
2023-05-17T03:50:27.345Z,23.60
2023-05-17T03:53:13.818Z,20.67
2023-05-17T03:55:59.994Z,26.42
2023-05-17T03:58:47.875Z,21.20
2023-05-17T04:01:35.310Z,17.05
2023-05-17T04:04:21.456Z,19.70
2023-05-17T04:07:08.141Z,19.45
2023-05-17T04:10:03.769Z,20.60
2023-05-17T04:12:50.149Z,24.48
2023-05-17T04:15:36.963Z,22.95
2023-05-17T04:18:24.581Z,20.55
2023-05-17T04:21:10.980Z,17.73
2023-05-17T04:23:58.652Z,17.35
2023-05-17T04:26:46.500Z,16.58
2023-05-17T04:29:59.215Z,20.33
2023-05-17T04:32:46.204Z,17.27
2023-05-17T04:35:32.925Z,16.38
2023-05-17T04:38:19.137Z,16.85
2023-05-17T04:41:06.723Z,20.92
2023-05-17T04:43:56.384Z,14.52
2023-05-17T04:46:50.180Z,12.05
2023-05-17T04:49:37.397Z,24.15
2023-05-17T04:52:23.944Z,16.58
2023-05-17T04:55:11.435Z,15.52
2023-05-17T04:57:58.437Z,18.02
2023-05-17T05:00:46.183Z,14.07
2023-05-17T05:03:33.218Z,8.35
2023-05-17T05:06:22.643Z,15.55
2023-05-17T05:09:10.551Z,15.20
2023-05-17T05:11:58.918Z,16.40
2023-05-17T05:14:46.158Z,15.18
2023-05-17T05:17:33.235Z,11.45
2023-05-17T05:20:20.592Z,12.82
2023-05-17T05:23:07.112Z,19.02
2023-05-17T05:25:54.446Z,13.38
2023-05-17T05:28:42.784Z,11.55
2023-05-17T05:31:30.964Z,13.00
2023-05-17T05:34:20.056Z,13.45
2023-05-17T05:37:08.535Z,8.02
2023-05-17T05:39:54.857Z,13.27
2023-05-17T05:42:41.209Z,10.10
2023-05-17T05:45:27.709Z,10.38
2023-05-17T05:48:19.208Z,8.82
2023-05-17T05:51:07.850Z,10.20
2023-05-17T05:53:55.964Z,12.88
2023-05-17T05:56:42.366Z,10.68
2023-05-17T05:59:32.096Z,8.55
2023-05-17T06:02:20.026Z,9.45
2023-05-17T06:05:07.282Z,7.65
2023-05-17T06:08:01.071Z,8.18
2023-05-17T06:13:55.113Z,11.25
2023-05-17T06:16:52.294Z,9.32
2023-05-17T06:19:42.822Z,11.23
2023-05-17T06:22:35.342Z,8.27
2023-05-17T06:25:25.123Z,7.53
2023-05-17T06:28:11.727Z,6.70
2023-05-17T06:30:58.358Z,11.38
2023-05-17T06:33:44.669Z,9.35
2023-05-17T06:36:32.402Z,15.95
2023-05-17T06:39:19.357Z,11.27
2023-05-17T06:42:08.802Z,8.20
2023-05-17T06:44:58.247Z,8.18
2023-05-17T06:47:44.949Z,13.38
2023-05-17T06:50:32.313Z,9.30
2023-05-17T06:53:18.792Z,10.57
2023-05-17T06:56:04.892Z,7.22
2023-05-17T06:58:51.625Z,8.63
2023-05-17T07:01:38.249Z,7.05
2023-05-17T07:04:24.337Z,7.35
2023-05-17T07:07:11.661Z,4.53
2023-05-17T07:09:58.099Z,12.52
2023-05-17T07:12:44.140Z,5.30
2023-05-17T07:15:30.616Z,9.50
2023-05-17T07:18:17.437Z,7.35
2023-05-17T07:27:53.955Z,7.63
2023-05-17T07:30:40.216Z,7.65
2023-05-17T07:33:27.863Z,10.50
2023-05-17T07:36:14.345Z,9.43
2023-05-17T07:39:00.801Z,8.20
2023-05-17T07:42:15.980Z,5.13
2023-05-17T07:45:02.254Z,11.10
2023-05-17T07:47:48.529Z,8.10
2023-05-17T07:50:34.800Z,16.30
2023-05-17T07:53:21.345Z,8.48
2023-05-17T07:56:07.928Z,8.00
2023-05-17T07:58:54.514Z,6.50
2023-05-17T08:01:41.124Z,6.20
2023-05-17T08:04:27.359Z,7.00
2023-05-17T08:07:13.901Z,6.82
2023-05-17T08:09:59.984Z,8.23
2023-05-17T08:12:46.859Z,5.13
2023-05-17T08:15:33.125Z,9.18
2023-05-17T08:18:19.680Z,9.90
2023-05-17T08:21:06.296Z,7.97
2023-05-17T08:23:52.199Z,5.78
2023-05-17T08:26:38.865Z,8.05
2023-05-17T08:29:25.693Z,8.88
2023-05-17T08:32:11.844Z,6.63
2023-05-17T08:34:58.040Z,9.77
2023-05-17T08:37:44.369Z,8.02
2023-05-17T08:40:31.135Z,9.80
2023-05-17T08:43:17.729Z,8.32
2023-05-17T08:46:04.356Z,10.90
2023-05-17T08:48:52.217Z,7.15
2023-05-17T08:51:39.681Z,8.52
2023-05-17T08:54:27.986Z,9.43
2023-05-17T08:57:16.217Z,4.90
2023-05-17T09:00:12.685Z,4.68
2023-05-17T09:02:59.041Z,7.63
2023-05-17T09:05:46.574Z,5.32
2023-05-17T09:08:33.126Z,8.48
2023-05-17T09:11:33.226Z,12.02
2023-05-17T09:14:19.815Z,6.13
2023-05-17T09:17:07.593Z,8.35
2023-05-17T09:19:53.705Z,7.65
2023-05-17T09:22:40.583Z,13.75
2023-05-17T09:25:28.251Z,8.63
2023-05-17T09:28:14.297Z,8.02
2023-05-17T09:31:06.303Z,7.38
2023-05-17T09:33:52.673Z,7.47
2023-05-17T09:36:42.809Z,5.72
2023-05-17T09:39:29.386Z,4.75
2023-05-17T09:42:16.838Z,10.40
2023-05-17T09:45:03.194Z,7.00
2023-05-17T09:47:49.493Z,8.50
2023-05-17T09:50:36.982Z,7.10
2023-05-17T09:53:25.372Z,9.15
2023-05-17T09:56:12.334Z,5.80
2023-05-17T09:59:02.206Z,7.80
2023-05-17T10:01:51.187Z,9.63
2023-05-17T10:04:38.251Z,7.70
2023-05-17T10:07:26.138Z,6.45
2023-05-17T10:10:14.565Z,10.30
2023-05-17T10:13:02.421Z,7.72
2023-05-17T10:15:49.855Z,8.63
2023-05-17T10:18:37.805Z,10.20
2023-05-17T10:21:24.483Z,10.82
2023-05-17T10:24:11.210Z,5.53
2023-05-17T10:26:58.767Z,8.93
2023-05-17T10:29:48.423Z,9.55
2023-05-17T10:32:36.572Z,9.68
2023-05-17T10:35:24.106Z,10.23
2023-05-17T10:38:10.788Z,10.95
2023-05-17T10:40:57.564Z,10.82
2023-05-17T10:43:44.421Z,8.52
2023-05-17T10:46:31.687Z,6.35
2023-05-17T10:49:20.382Z,16.75
2023-05-17T10:52:14.557Z,8.83
2023-05-17T10:55:01.067Z,6.78
2023-05-17T10:57:58.736Z,9.23
2023-05-17T11:00:49.959Z,8.00
2023-05-17T11:03:38.845Z,11.85
2023-05-17T11:06:25.557Z,10.23
2023-05-17T11:09:16.757Z,7.85
2023-05-17T11:12:10.020Z,7.72
2023-05-17T11:14:56.476Z,11.45
2023-05-17T11:17:54.879Z,8.75
2023-05-17T11:20:42.672Z,10.02
2023-05-17T11:23:31.887Z,9.93
2023-05-17T11:26:27.698Z,10.27
2023-05-17T11:29:14.738Z,8.45
2023-05-17T11:32:07.445Z,10.32
2023-05-17T11:34:53.830Z,8.20
2023-05-17T11:37:40.789Z,12.10
2023-05-17T11:40:31.237Z,11.30
2023-05-17T11:43:19.334Z,14.32
2023-05-17T11:46:12.932Z,11.52
2023-05-17T11:48:59.528Z,12.77
2023-05-17T11:51:47.257Z,9.82
2023-05-17T11:54:33.718Z,10.38
2023-05-17T11:57:23.362Z,9.65
2023-05-17T12:00:09.907Z,8.10
2023-05-17T12:03:20.713Z,7.68
2023-05-17T12:06:10.955Z,10.90
2023-05-17T12:08:57.489Z,9.90
2023-05-17T12:11:43.548Z,10.00
2023-05-17T12:14:29.617Z,9.05
2023-05-17T12:17:34.528Z,7.68
2023-05-17T12:20:21.634Z,12.93
2023-05-17T12:23:08.542Z,13.77
2023-05-17T12:26:02.766Z,11.27
2023-05-17T12:28:58.102Z,8.18
2023-05-17T12:31:52.037Z,10.13
2023-05-17T12:34:38.431Z,10.23
2023-05-17T12:37:25.352Z,11.13
2023-05-17T12:40:12.392Z,7.57
2023-05-17T12:43:05.067Z,8.20
2023-05-17T12:45:53.477Z,8.50
2023-05-17T12:48:41.597Z,11.20
2023-05-17T12:51:27.994Z,12.68
2023-05-17T12:54:19.535Z,5.45
2023-05-17T12:57:14.036Z,8.98
2023-05-17T13:00:03.091Z,9.18
2023-05-17T13:02:49.437Z,11.32
2023-05-17T13:05:36.242Z,10.48
2023-05-17T13:08:23.195Z,7.53
2023-05-17T13:11:10.562Z,11.48
2023-05-17T13:13:57.152Z,7.32
2023-05-17T13:16:43.336Z,8.82
2023-05-17T13:19:30.150Z,14.07
2023-05-17T13:22:16.709Z,6.28
2023-05-17T13:25:04.289Z,13.70
2023-05-17T13:27:50.913Z,9.57
2023-05-17T13:30:38.177Z,9.13
2023-05-17T13:33:27.949Z,10.18
2023-05-17T13:36:14.764Z,12.65
2023-05-17T13:39:02.723Z,13.15
2023-05-17T13:41:49.216Z,8.13
2023-05-17T13:44:35.401Z,12.32
2023-05-17T13:47:22.100Z,11.85
2023-05-17T13:50:09.449Z,8.07
2023-05-17T13:52:56.055Z,13.55
2023-05-17T13:55:43.088Z,13.80
2023-05-17T13:58:29.372Z,9.25
2023-05-17T14:01:16.711Z,10.82
2023-05-17T14:04:03.840Z,12.27
2023-05-17T14:06:54.874Z,16.58
2023-05-17T14:09:41.337Z,9.55
2023-05-17T14:12:28.117Z,9.15
2023-05-17T14:15:15.997Z,7.75
2023-05-17T14:18:02.239Z,11.07
2023-05-17T14:24:31.106Z,9.93
2023-05-17T14:27:43.202Z,12.23
2023-05-17T14:30:29.657Z,10.23
2023-05-17T14:33:16.322Z,13.00
2023-05-17T14:36:04.537Z,6.80
2023-05-17T14:38:51.659Z,11.07
2023-05-17T14:41:39.427Z,9.63
2023-05-17T14:44:27.216Z,7.13
2023-05-17T14:47:13.193Z,15.00
2023-05-17T14:49:59.402Z,9.50
2023-05-17T14:52:46.037Z,7.50
2023-05-17T14:55:32.356Z,5.07
2023-05-17T14:58:18.661Z,9.18
2023-05-17T15:01:07.134Z,10.90
2023-05-17T15:03:53.606Z,8.93
2023-05-17T15:06:40.198Z,7.53
2023-05-17T15:09:26.726Z,8.30
2023-05-17T15:12:14.341Z,6.30
2023-05-17T15:15:00.785Z,10.05
2023-05-17T15:17:47.349Z,7.35
2023-05-17T15:20:35.043Z,12.05
2023-05-17T15:23:21.720Z,10.65
2023-05-17T15:26:08.253Z,9.55
2023-05-17T15:28:54.454Z,9.82
2023-05-17T15:31:40.672Z,11.93
2023-05-17T15:34:29.245Z,13.05
2023-05-17T15:37:15.707Z,15.48
2023-05-17T15:40:09.825Z,14.98
2023-05-17T15:42:56.411Z,13.40
2023-05-17T15:45:43.652Z,15.75
2023-05-17T15:48:30.325Z,10.07
2023-05-17T15:51:17.041Z,11.32
2023-05-17T15:54:06.107Z,11.00
2023-05-17T15:56:53.078Z,12.18
2023-05-17T15:59:40.134Z,14.25
2023-05-17T16:02:27.358Z,10.70
2023-05-17T16:05:13.674Z,16.13
2023-05-17T16:08:00.181Z,10.10
2023-05-17T16:10:47.399Z,10.20
2023-05-17T16:13:33.849Z,12.60
2023-05-17T16:16:20.855Z,12.88
2023-05-17T16:19:07.853Z,13.30
2023-05-17T16:21:54.726Z,10.85
2023-05-17T16:24:41.503Z,10.73
2023-05-17T16:27:27.911Z,11.50
2023-05-17T16:30:14.224Z,13.73
2023-05-17T16:33:00.595Z,12.73
2023-05-17T16:35:50.370Z,10.75
2023-05-17T16:38:36.808Z,18.10
2023-05-17T16:41:23.880Z,11.50
2023-05-17T16:44:10.854Z,13.32
2023-05-17T16:46:57.603Z,8.43
2023-05-17T16:58:31.880Z,12.23
2023-05-17T17:01:18.072Z,14.10
2023-05-17T17:04:05.060Z,9.10
2023-05-17T17:06:58.729Z,11.63
2023-05-17T17:09:50.071Z,11.63
2023-05-17T17:12:36.701Z,11.43
2023-05-17T17:15:23.829Z,10.77
2023-05-17T17:18:10.640Z,16.92
2023-05-17T17:20:57.941Z,10.65
2023-05-17T17:23:47.844Z,12.60
2023-05-17T17:26:39.768Z,15.05
2023-05-17T17:29:29.855Z,15.30
2023-05-17T17:32:16.584Z,9.15
2023-05-17T17:35:02.856Z,9.95
2023-05-17T17:37:48.948Z,10.90
2023-05-17T17:40:35.328Z,8.95
2023-05-17T17:43:22.934Z,9.05
2023-05-17T17:46:09.809Z,10.10
2023-05-17T17:48:56.893Z,15.10
2023-05-17T17:51:46.479Z,10.43
2023-05-17T17:54:33.782Z,12.77
2023-05-17T17:57:20.364Z,7.88
2023-05-17T18:00:11.724Z,13.23
2023-05-17T18:03:00.390Z,9.48
2023-05-17T18:05:48.676Z,14.93
2023-05-17T18:08:45.784Z,16.45
2023-05-17T18:11:32.168Z,13.18
2023-05-17T18:14:18.269Z,9.73
2023-05-17T18:17:04.668Z,13.63
2023-05-17T18:19:51.679Z,10.48
2023-05-17T18:22:38.783Z,13.60
2023-05-17T18:25:25.621Z,12.50
2023-05-17T18:28:12.535Z,8.93
2023-05-17T18:30:59.462Z,10.50
2023-05-17T18:33:46.412Z,9.00
2023-05-17T18:36:33.244Z,12.85
2023-05-17T18:39:19.829Z,7.93
2023-05-17T18:42:06.653Z,10.98
2023-05-17T18:44:53.570Z,10.63
2023-05-17T18:47:40.067Z,10.65
2023-05-17T18:50:26.497Z,11.00
2023-05-17T18:53:13.149Z,13.10
2023-05-17T18:56:01.708Z,13.32
2023-05-17T18:58:50.181Z,11.70
2023-05-17T19:01:37.687Z,16.27
2023-05-17T19:04:26.362Z,8.65
2023-05-17T19:07:14.365Z,14.27
2023-05-17T19:10:01.357Z,11.68
2023-05-17T19:12:48.169Z,13.93
2023-05-17T19:15:34.504Z,11.38
2023-05-17T19:18:21.642Z,12.43
2023-05-17T19:21:08.516Z,8.68
2023-05-17T19:23:55.466Z,16.20
2023-05-17T19:26:42.520Z,13.88
2023-05-17T19:29:32.032Z,8.07
2023-05-17T19:32:20.779Z,8.57
2023-05-17T19:35:08.150Z,11.73
2023-05-17T19:37:57.548Z,10.02
2023-05-17T19:40:44.530Z,8.88
2023-05-17T19:43:32.915Z,12.30
2023-05-17T19:46:20.552Z,10.05
2023-05-17T19:49:07.451Z,10.60
2023-05-17T19:51:54.882Z,13.40
2023-05-17T19:54:41.869Z,8.75
2023-05-17T19:57:28.856Z,12.02
2023-05-17T20:00:18.386Z,9.27
2023-05-17T20:03:06.503Z,10.18
2023-05-17T20:05:53.272Z,6.90
2023-05-17T20:08:40.248Z,10.73
2023-05-17T20:11:27.254Z,6.65
2023-05-17T20:14:14.118Z,11.25
2023-05-17T20:17:00.297Z,8.15
2023-05-17T20:19:47.245Z,10.45
2023-05-17T20:22:33.668Z,9.48
2023-05-17T20:25:20.050Z,15.52
2023-05-17T20:28:06.189Z,9.15
2023-05-17T20:30:52.425Z,12.88
2023-05-17T20:33:38.672Z,19.30
2023-05-17T20:36:25.346Z,14.43
2023-05-17T20:39:11.947Z,12.90
2023-05-17T20:42:01.927Z,10.38
2023-05-17T20:44:54.310Z,8.52
2023-05-17T20:47:40.634Z,14.60
2023-05-17T20:50:27.751Z,11.68
2023-05-17T20:53:14.115Z,13.13
2023-05-17T20:56:00.388Z,10.40
2023-05-17T20:58:47.238Z,11.35
2023-05-17T21:01:52.026Z,8.57
2023-05-17T21:04:44.523Z,10.32
2023-05-17T21:07:31.070Z,9.63
2023-05-17T21:10:18.190Z,15.52
2023-05-17T21:13:04.658Z,9.48
2023-05-17T21:15:50.918Z,11.13
2023-05-17T21:18:36.995Z,9.43
2023-05-17T21:21:23.288Z,12.43
2023-05-17T21:24:09.627Z,11.57
2023-05-17T21:26:56.210Z,14.20
2023-05-17T21:29:43.225Z,8.65
2023-05-17T21:32:30.444Z,8.75
2023-05-17T21:35:16.735Z,12.93
2023-05-17T21:38:03.419Z,11.40
2023-05-17T21:40:50.404Z,16.75
2023-05-17T21:43:37.378Z,11.98
2023-05-17T21:46:24.364Z,17.38
2023-05-17T21:49:11.160Z,8.05
2023-05-17T21:51:58.259Z,17.58
2023-05-17T21:54:45.061Z,10.55
2023-05-17T21:57:33.124Z,11.52
2023-05-17T22:00:21.143Z,13.50
2023-05-17T22:03:08.104Z,10.60
2023-05-17T22:05:54.844Z,12.98
2023-05-17T22:08:42.891Z,9.68
2023-05-17T22:11:29.548Z,12.63
2023-05-17T22:14:16.349Z,13.38
2023-05-17T22:17:08.114Z,11.50
2023-05-17T22:19:55.141Z,11.13
2023-05-17T22:22:42.106Z,11.70
2023-05-17T22:25:28.650Z,13.15
2023-05-17T22:28:14.904Z,12.10
2023-05-17T22:31:02.397Z,12.73
2023-05-17T22:33:49.163Z,10.05
2023-05-17T22:36:35.226Z,8.02
2023-05-17T22:39:22.560Z,12.27
2023-05-17T22:42:09.979Z,10.00
2023-05-17T22:44:56.347Z,10.80
2023-05-17T22:47:43.406Z,12.73
2023-05-17T22:50:30.834Z,12.20
2023-05-17T22:53:18.711Z,8.80
2023-05-17T22:56:05.766Z,10.60
2023-05-17T22:58:52.478Z,8.25
2023-05-17T23:01:39.612Z,7.50
2023-05-17T23:04:28.468Z,12.68
2023-05-17T23:07:15.791Z,7.75
2023-05-17T23:10:03.405Z,12.25
2023-05-17T23:12:52.459Z,7.00
2023-05-17T23:15:41.309Z,9.55
2023-05-17T23:18:28.550Z,8.18
2023-05-17T23:21:15.501Z,7.88
2023-05-17T23:24:02.259Z,6.38
2023-05-17T23:26:49.352Z,6.78
2023-05-17T23:29:35.807Z,8.93
2023-05-17T23:32:23.693Z,15.05
2023-05-17T23:35:11.153Z,9.43
2023-05-17T23:37:57.799Z,6.93
2023-05-17T23:40:44.546Z,5.00
2023-05-17T23:43:31.477Z,9.73
2023-05-17T23:46:20.143Z,6.28
2023-05-17T23:49:06.360Z,6.80
2023-05-17T23:51:53.343Z,8.90
2023-05-17T23:54:40.073Z,8.32
2023-05-17T23:57:29.395Z,9.68
